Time;durP1;ratioP1;P1;durP2;ratioP2;P2;SDS_P1;SDS_P2;PMS_P1;PMS_P2;Temp;Humidity;BMP_temperature;BMP_pressure;BME280_temperature;BME280_humidity;BME280_pressure;Samples;Min_cycle;Max_cycle;Signal;HPM_P1;HPM_P2
2021/11/12 00:12:15;;;;;;;38.33;21.52;;;0.90;99.90;;;;;;5056363;28;20045;-89
2021/11/12 00:14:46;;;;;;;37.17;19.98;;;0.90;99.90;;;;;;5055943;28;20489;-89
2021/11/12 00:17:15;;;;;;;33.22;18.48;;;0.90;99.90;;;;;;5055188;28;20052;-89
2021/11/12 00:19:42;;;;;;;41.20;21.30;;;0.90;99.90;;;;;;5055022;28;20603;-89
2021/11/12 00:22:10;;;;;;;31.00;18.52;;;0.90;99.90;;;;;;5054766;28;20489;-89
2021/11/12 00:24:37;;;;;;;37.63;19.88;;;0.90;99.90;;;;;;5055036;28;20049;-89
2021/11/12 00:27:05;;;;;;;37.05;20.90;;;0.90;99.90;;;;;;5054914;28;20055;-89
2021/11/12 00:29:50;;;;;;;33.72;19.02;;;0.80;99.90;;;;;;5055374;28;20053;-89
2021/11/12 00:40:17;;;;;;;33.67;18.98;;;0.80;99.90;;;;;;5055568;28;20136;-89
2021/11/12 00:42:54;;;;;;;31.58;18.42;;;0.90;99.90;;;;;;5055789;28;20053;-89
2021/11/12 00:45:23;;;;;;;46.30;20.15;;;0.90;99.90;;;;;;5054825;28;20048;-89
2021/11/12 00:50:34;;;;;;;34.13;19.03;;;0.90;99.90;;;;;;5055709;28;20059;-89
2021/11/12 00:55:29;;;;;;;39.20;19.08;;;0.90;99.90;;;;;;5055310;28;20139;-89
2021/11/12 00:57:58;;;;;;;46.90;19.95;;;0.90;99.90;;;;;;5054204;28;20063;-89
2021/11/12 01:00:26;;;;;;;32.10;17.27;;;0.90;99.90;;;;;;5054193;28;20053;-89
2021/11/12 01:02:54;;;;;;;37.00;18.95;;;0.80;99.90;;;;;;5056358;28;20048;-89
2021/11/12 01:05:21;;;;;;;33.00;17.95;;;0.80;99.90;;;;;;5054241;28;20041;-89
2021/11/12 01:07:48;;;;;;;34.35;18.25;;;0.80;99.90;;;;;;5054394;28;20477;-89
2021/11/12 01:10:16;;;;;;;30.55;17.63;;;0.80;99.90;;;;;;5054127;28;20084;-89
2021/11/12 01:12:48;;;;;;;31.67;17.40;;;0.80;99.90;;;;;;5054106;28;20049;-89
2021/11/12 01:15:16;;;;;;;32.65;18.70;;;0.80;99.90;;;;;;5055077;28;20053;-90
2021/11/12 01:17:44;;;;;;;34.05;18.02;;;0.80;99.90;;;;;;5054059;28;20045;-89
2021/11/12 01:20:15;;;;;;;29.55;17.52;;;0.80;99.90;;;;;;5054664;28;20067;-89
2021/11/12 01:22:43;;;;;;;29.55;16.80;;;0.90;99.90;;;;;;5053891;28;20057;-89
2021/11/12 01:25:11;;;;;;;37.38;18.38;;;0.90;99.90;;;;;;5053888;28;20132;-90
2021/11/12 01:27:39;;;;;;;35.22;17.65;;;0.80;99.90;;;;;;5054092;28;20468;-89
2021/11/12 01:30:10;;;;;;;47.67;18.95;;;0.80;99.90;;;;;;5053978;28;20128;-90
2021/11/12 01:32:37;;;;;;;41.92;19.23;;;0.90;99.90;;;;;;5054134;28;20144;-89
2021/11/12 01:35:05;;;;;;;47.80;19.88;;;0.90;99.90;;;;;;5053807;28;20049;-89
2021/11/12 01:37:33;;;;;;;48.25;21.08;;;0.90;99.90;;;;;;5053754;28;20049;-89
2021/11/12 01:40:05;;;;;;;53.22;21.65;;;0.90;99.90;;;;;;5054003;28;20128;-90
2021/11/12 01:43:24;;;;;;;44.50;19.98;;;0.90;99.90;;;;;;5053223;28;20409;-89
2021/11/12 01:46:09;;;;;;;33.45;18.60;;;0.90;99.90;;;;;;5053763;28;20124;-89
2021/11/12 01:49:06;;;;;;;31.00;18.55;;;0.90;99.90;;;;;;5053468;28;20059;-90
2021/11/12 01:59:21;;;;;;;31.90;18.13;;;0.90;99.90;;;;;;5054273;28;20041;-89
2021/11/12 02:01:52;;;;;;;36.70;19.27;;;0.90;99.90;;;;;;5053157;28;20512;-89
2021/11/12 02:04:30;;;;;;;33.33;18.83;;;0.80;99.90;;;;;;5053383;28;20053;-89
2021/11/12 02:06:59;;;;;;;38.72;19.92;;;0.80;99.90;;;;;;5053169;28;20057;-90
2021/11/12 02:09:28;;;;;;;31.25;18.40;;;0.80;99.90;;;;;;5053084;28;20071;-90
2021/11/12 02:12:26;;;;;;;39.88;20.10;;;0.80;99.90;;;;;;5052995;28;20060;-89
2021/11/12 02:14:55;;;;;;;35.35;19.98;;;0.80;99.90;;;;;;5052321;28;20512;-90
2021/11/12 02:17:25;;;;;;;38.65;20.73;;;0.90;99.90;;;;;;5052744;28;20071;-89
2021/11/12 02:22:33;;;;;;;41.08;20.08;;;0.90;99.90;;;;;;5053584;28;20555;-90
2021/11/12 02:25:06;;;;;;;41.75;20.13;;;0.90;99.90;;;;;;5052905;28;20391;-89
2021/11/12 02:27:41;;;;;;;40.53;20.50;;;0.80;99.90;;;;;;5052728;28;20063;-90
2021/11/12 02:30:08;;;;;;;38.15;20.15;;;0.80;99.90;;;;;;5052908;28;20052;-90
2021/11/12 02:32:35;;;;;;;38.17;19.95;;;0.70;99.90;;;;;;5052558;28;20041;-89
2021/11/12 02:35:03;;;;;;;38.47;20.08;;;0.70;99.90;;;;;;5052980;28;20055;-90
2021/11/12 02:37:32;;;;;;;35.38;19.65;;;0.70;99.90;;;;;;5052430;28;20072;-90
2021/11/12 02:40:01;;;;;;;34.80;19.92;;;0.70;99.90;;;;;;5052485;28;20053;-90
2021/11/12 02:42:28;;;;;;;36.90;19.65;;;0.70;99.90;;;;;;5053193;28;20055;-90
2021/11/12 02:44:55;;;;;;;41.63;20.52;;;0.70;99.90;;;;;;5052349;28;20041;-90
2021/11/12 02:47:23;;;;;;;38.75;19.77;;;0.70;99.90;;;;;;5052338;28;20056;-90
2021/11/12 02:49:53;;;;;;;37.60;20.02;;;0.70;99.90;;;;;;5052602;28;20401;-90
2021/11/12 02:52:20;;;;;;;39.47;19.88;;;0.70;99.90;;;;;;5052095;28;20051;-90
2021/11/12 02:54:48;;;;;;;40.83;19.63;;;0.70;99.90;;;;;;5055297;28;20148;-90
2021/11/12 02:57:16;;;;;;;35.75;20.35;;;0.70;99.90;;;;;;5056360;28;20477;-90
2021/11/12 02:59:43;;;;;;;40.35;19.75;;;0.70;99.90;;;;;;5056546;28;20071;-90
2021/11/12 03:02:10;;;;;;;41.78;21.27;;;0.70;99.90;;;;;;5056233;28;20048;-90
2021/11/12 03:04:37;;;;;;;34.35;20.00;;;0.80;99.90;;;;;;5056387;28;20143;-90
2021/11/12 03:07:04;;;;;;;34.08;18.77;;;0.80;99.90;;;;;;5056716;28;20063;-90
2021/11/12 03:09:32;;;;;;;34.90;19.38;;;0.80;99.90;;;;;;5056587;28;20076;-90
2021/11/12 03:12:02;;;;;;;43.05;20.63;;;0.80;99.90;;;;;;5056410;28;20051;-90
2021/11/12 03:14:29;;;;;;;39.92;20.30;;;0.80;99.90;;;;;;5056344;28;20486;-90
2021/11/12 03:16:56;;;;;;;34.78;18.20;;;0.90;99.90;;;;;;5057430;28;20052;-90
2021/11/12 03:19:25;;;;;;;35.72;18.20;;;0.80;99.90;;;;;;5056494;28;20147;-90
2021/11/12 03:21:59;;;;;;;32.58;17.75;;;0.80;99.90;;;;;;5056234;28;20049;-90
2021/11/12 03:24:30;;;;;;;35.13;18.27;;;0.80;99.90;;;;;;5056293;28;20463;-90
2021/11/12 03:59:54;;;;;;;38.88;20.00;;;0.70;99.90;;;;;;5056219;28;20335;-90
2021/11/12 04:19:27;;;;;;;39.92;20.38;;;0.80;99.90;;;;;;5034243;28;20060;-90
2021/11/12 04:22:21;;;;;;;37.55;20.50;;;0.80;99.90;;;;;;5050363;28;20132;-91
2021/11/12 04:41:58;;;;;;;40.33;19.92;;;0.80;99.90;;;;;;5054781;28;20537;-90
2021/11/12 04:49:57;;;;;;;36.78;18.42;;;0.80;99.90;;;;;;5053809;28;20127;-91
2021/11/12 05:44:22;;;;;;;43.50;20.55;;;0.60;99.90;;;;;;5054449;28;20055;-91
2021/11/12 05:57:33;;;;;;;33.85;18.80;;;0.70;99.90;;;;;;5054240;28;20059;-90
2021/11/12 06:00:00;;;;;;;65.70;26.27;;;0.60;99.90;;;;;;5053338;28;20053;-91
2021/11/12 06:02:26;;;;;;;42.22;22.58;;;0.60;99.90;;;;;;5052895;28;20416;-91
2021/11/12 06:04:53;;;;;;;40.22;19.77;;;0.60;99.90;;;;;;5053347;28;20496;-91
2021/11/12 06:07:20;;;;;;;38.45;20.10;;;0.60;99.90;;;;;;5053285;28;20412;-91
2021/11/12 06:09:47;;;;;;;43.58;21.15;;;0.60;99.90;;;;;;5053220;28;20049;-91
2021/11/12 06:12:13;;;;;;;38.33;20.48;;;0.60;99.90;;;;;;5053191;28;20055;-91
2021/11/12 06:14:41;;;;;;;42.67;22.15;;;0.60;99.90;;;;;;5053033;28;20053;-92
2021/11/12 06:17:08;;;;;;;38.55;20.58;;;0.60;99.90;;;;;;5053121;28;20132;-91
2021/11/12 06:19:34;;;;;;;44.25;21.23;;;0.70;99.90;;;;;;5053116;28;20057;-91
2021/11/12 06:22:03;;;;;;;39.03;20.90;;;0.70;99.90;;;;;;5052974;28;20049;-91
2021/11/12 06:24:30;;;;;;;38.47;21.52;;;0.60;99.90;;;;;;5052736;28;20140;-91
2021/11/12 06:26:56;;;;;;;45.03;23.40;;;0.60;99.90;;;;;;5052992;28;20136;-91
2021/11/12 06:29:23;;;;;;;42.72;22.08;;;0.70;99.90;;;;;;5052094;28;20049;-91
2021/11/12 06:31:51;;;;;;;37.35;20.60;;;0.70;99.90;;;;;;5052884;28;20135;-91
2021/11/12 06:34:18;;;;;;;36.83;20.73;;;0.70;99.90;;;;;;5052848;28;20056;-91
2021/11/12 06:36:45;;;;;;;45.42;22.08;;;0.80;99.90;;;;;;5052816;28;20051;-91
2021/11/12 06:39:11;;;;;;;37.40;20.52;;;0.90;99.90;;;;;;5052850;28;20432;-91
2021/11/12 06:49:39;;;;;;;41.78;20.95;;;0.90;99.90;;;;;;5053581;28;20053;-91
2021/11/12 06:52:06;;;;;;;41.40;21.75;;;0.80;99.90;;;;;;5052730;28;20056;-91
2021/11/12 06:54:33;;;;;;;35.97;20.38;;;0.80;99.90;;;;;;5052801;28;20045;-91
2021/11/12 06:57:00;;;;;;;34.15;19.08;;;0.80;99.90;;;;;;5052587;28;20501;-91
2021/11/12 06:59:26;;;;;;;43.35;19.77;;;0.80;99.90;;;;;;5052666;28;20052;-91
2021/11/12 07:01:53;;;;;;;39.42;20.65;;;0.80;99.90;;;;;;5052492;28;20554;-91
2021/11/12 07:04:21;;;;;;;43.40;21.45;;;0.80;99.90;;;;;;5052513;28;20102;-90
2021/11/12 07:06:48;;;;;;;35.90;20.17;;;0.80;99.90;;;;;;5052659;28;20045;-91
2021/11/12 07:09:15;;;;;;;35.15;20.20;;;0.80;99.90;;;;;;5052625;28;20052;-91
2021/11/12 07:11:42;;;;;;;41.15;21.52;;;0.70;99.90;;;;;;5052644;28;20053;-91
2021/11/12 07:14:09;;;;;;;39.35;21.10;;;0.80;99.90;;;;;;5052732;28;20131;-91
2021/11/12 07:16:36;;;;;;;41.25;21.98;;;0.70;99.90;;;;;;5052600;28;20102;-91
2021/11/12 07:19:03;;;;;;;41.38;21.85;;;0.80;99.90;;;;;;5052576;28;20056;-91
2021/11/12 07:21:29;;;;;;;38.67;20.92;;;0.80;99.90;;;;;;5052517;28;20059;-91
2021/11/12 07:24:01;;;;;;;37.20;20.52;;;0.80;99.90;;;;;;5052210;28;20075;-91
2021/11/12 07:26:28;;;;;;;43.42;23.08;;;0.80;99.90;;;;;;5052163;28;20056;-91
2021/11/12 07:28:55;;;;;;;44.22;24.42;;;0.80;99.90;;;;;;5052468;28;20049;-91
2021/11/12 07:31:40;;;;;;;49.80;28.52;;;0.80;99.90;;;;;;5052601;28;20071;-91
2021/11/12 07:34:08;;;;;;;49.00;27.52;;;0.90;99.90;;;;;;5052248;28;20053;-91
2021/11/12 07:36:40;;;;;;;38.72;22.08;;;0.80;99.90;;;;;;5052070;28;20059;-91
2021/11/12 07:39:14;;;;;;;41.67;26.60;;;0.90;99.90;;;;;;5052171;28;20045;-91
2021/11/12 07:47:15;;;;;;;64.82;30.48;;;1.10;99.90;;;;;;5056165;28;20061;-91
2021/11/12 07:49:50;;;;;;;44.17;23.20;;;1.20;99.90;;;;;;5056457;28;20045;-91
2021/11/12 07:52:19;;;;;;;39.45;20.92;;;1.30;99.90;;;;;;5055533;28;20098;-91
2021/11/12 07:54:48;;;;;;;32.72;19.85;;;1.40;99.90;;;;;;5056409;28;20135;-91
2021/11/12 07:57:16;;;;;;;35.95;21.15;;;1.40;99.90;;;;;;5055558;28;20056;-91
2021/11/12 07:59:43;;;;;;;36.92;21.35;;;1.50;99.90;;;;;;5056477;28;20049;-91
2021/11/12 08:02:15;;;;;;;37.22;21.90;;;1.60;99.90;;;;;;5055424;28;20493;-91
2021/11/12 08:04:43;;;;;;;32.85;19.23;;;1.60;99.90;;;;;;5055349;28;20059;-90
2021/11/12 08:07:11;;;;;;;30.85;19.48;;;1.70;99.90;;;;;;5055524;28;20052;-91
2021/11/12 08:09:52;;;;;;;30.40;17.60;;;1.70;99.90;;;;;;5055267;28;20056;-90
2021/11/12 08:12:24;;;;;;;31.38;19.13;;;1.80;99.90;;;;;;5055196;28;20131;-90
2021/11/12 08:20:25;;;;;;;48.67;19.38;;;2.00;99.90;;;;;;5051453;28;20296;-90
2021/11/12 08:23:04;;;;;;;45.25;17.95;;;2.10;99.90;;;;;;5054862;28;20051;-91
2021/11/12 08:25:44;;;;;;;26.95;16.33;;;2.20;99.90;;;;;;5055037;28;20549;-91
2021/11/12 08:30:52;;;;;;;31.25;17.92;;;2.20;99.90;;;;;;5055771;28;20135;-90
2021/11/12 08:33:40;;;;;;;29.05;17.08;;;2.30;99.90;;;;;;5054745;28;20552;-90
2021/11/12 08:38:57;;;;;;;31.08;18.48;;;2.50;99.90;;;;;;5055399;28;20057;-89
2021/11/12 08:41:38;;;;;;;29.63;15.95;;;2.70;99.90;;;;;;5054707;28;20442;-89
2021/11/12 08:47:13;;;;;;;27.92;16.88;;;2.80;99.90;;;;;;5055157;28;20136;-89
2021/11/12 08:49:41;;;;;;;31.33;17.23;;;3.10;99.90;;;;;;5054527;28;20132;-89
2021/11/12 08:52:13;;;;;;;29.02;16.92;;;3.20;99.90;;;;;;5053400;28;20060;-89
2021/11/12 08:54:43;;;;;;;27.88;16.00;;;3.50;99.90;;;;;;5054496;28;20409;-88
2021/11/12 08:57:14;;;;;;;22.45;14.57;;;3.70;99.90;;;;;;5054372;28;20049;-89
2021/11/12 08:59:47;;;;;;;25.05;15.10;;;4.20;99.90;;;;;;5054516;28;20100;-88
2021/11/12 09:02:19;;;;;;;31.60;18.95;;;4.30;99.90;;;;;;5054473;28;20053;-88
2021/11/12 09:04:47;;;;;;;20.92;15.10;;;4.20;99.90;;;;;;5054534;28;20053;-88
2021/11/12 09:07:16;;;;;;;22.83;14.80;;;4.60;99.90;;;;;;5054375;28;20049;-88
2021/11/12 09:09:44;;;;;;;23.10;14.65;;;5.10;99.90;;;;;;5054394;28;20553;-88
2021/11/12 09:12:13;;;;;;;24.23;14.10;;;5.40;99.90;;;;;;5054377;28;20124;-88
2021/11/12 09:14:47;;;;;;;29.13;15.07;;;5.10;99.90;;;;;;5054239;28;20139;-88
2021/11/12 09:17:16;;;;;;;26.15;14.77;;;4.90;99.90;;;;;;5054272;28;20140;-88
2021/11/12 09:19:57;;;;;;;24.58;14.48;;;4.80;99.90;;;;;;5054296;28;20137;-88
2021/11/12 09:22:31;;;;;;;27.33;15.50;;;4.90;99.90;;;;;;5053880;28;20044;-88
2021/11/12 09:24:58;;;;;;;27.30;14.90;;;5.00;99.90;;;;;;5054252;28;20408;-88
2021/11/12 09:27:25;;;;;;;28.23;14.27;;;5.80;99.90;;;;;;5054147;28;20052;-88
2021/11/12 09:29:53;;;;;;;30.00;14.05;;;6.70;99.90;;;;;;5054074;28;20047;-88
2021/11/12 09:32:20;;;;;;;23.00;12.48;;;7.40;99.90;;;;;;5054018;28;20416;-88
2021/11/12 09:34:47;;;;;;;29.83;14.65;;;8.00;99.90;;;;;;5054010;28;20049;-89
2021/11/12 09:37:21;;;;;;;40.90;14.57;;;8.80;99.90;;;;;;5052392;28;20049;-89
2021/11/12 09:39:54;;;;;;;28.55;22.02;;;9.60;99.90;;;;;;5054427;28;20052;-89
2021/11/12 09:42:24;;;;;;;26.70;14.90;;;9.30;99.90;;;;;;5053105;28;20502;-88
2021/11/12 09:44:52;;;;;;;31.02;18.90;;;9.50;99.90;;;;;;5053242;28;20151;-88
2021/11/12 09:47:26;;;;;;;25.60;13.30;;;9.90;99.90;;;;;;5052994;28;20554;-89
2021/11/12 09:49:58;;;;;;;42.67;23.92;;;9.80;99.90;;;;;;5054379;28;20434;-88
2021/11/12 09:52:27;;;;;;;29.23;19.05;;;10.10;99.90;;;;;;5053978;28;20456;-89
2021/11/12 09:54:53;;;;;;;19.83;12.40;;;10.40;99.90;;;;;;5053161;28;20057;-89
2021/11/12 09:57:21;;;;;;;65.78;43.17;;;11.40;99.90;;;;;;5053177;28;20099;-89
2021/11/12 09:59:50;;;;;;;19.20;13.80;;;12.50;99.90;;;;;;5054066;28;20048;-89
2021/11/12 10:02:18;;;;;;;23.67;16.17;;;12.50;98.80;;;;;;5052204;28;20063;-89
2021/11/12 10:04:46;;;;;;;19.48;11.32;;;11.60;99.90;;;;;;5052837;28;20087;-89
2021/11/12 10:07:16;;;;;;;33.85;26.85;;;12.20;99.80;;;;;;5053568;28;20076;-89
2021/11/12 10:09:48;;;;;;;39.40;29.63;;;12.60;98.60;;;;;;5052821;28;20140;-90
2021/11/12 10:12:15;;;;;;;23.20;14.50;;;12.20;97.20;;;;;;5053954;28;20041;-90
2021/11/12 10:17:14;;;;;;;14.55;9.95;;;13.70;96.30;;;;;;5053615;28;20056;-89
2021/11/12 10:19:48;;;;;;;20.02;11.60;;;15.20;92.20;;;;;;5052364;28;20493;-89
2021/11/12 10:22:20;;;;;;;25.25;15.40;;;14.50;91.10;;;;;;5043834;28;20053;-89
2021/11/12 10:24:54;;;;;;;21.17;12.88;;;13.90;90.90;;;;;;5036841;28;20048;-88
2021/11/12 10:27:31;;;;;;;19.50;12.65;;;12.80;92.10;;;;;;5036041;28;20494;-89
2021/11/12 10:30:08;;;;;;;17.88;11.73;;;11.30;96.30;;;;;;5036259;28;20053;-89
2021/11/12 10:32:36;;;;;;;19.98;12.40;;;10.30;99.90;;;;;;5053363;28;20055;-88
2021/11/12 10:35:08;;;;;;;25.10;11.85;;;9.90;99.90;;;;;;5035938;28;20053;-88
2021/11/12 10:37:38;;;;;;;41.40;25.63;;;10.00;99.90;;;;;;5053543;28;20087;-89
2021/11/12 10:40:16;;;;;;;24.13;14.60;;;11.00;99.90;;;;;;5053505;28;20055;-89
2021/11/12 10:42:47;;;;;;;42.75;12.57;;;11.90;99.90;;;;;;5035386;28;20131;-89
2021/11/12 10:45:29;;;;;;;26.67;11.18;;;13.00;99.90;;;;;;5053140;28;20059;-89
2021/11/12 10:48:01;;;;;;;14.93;8.93;;;14.70;96.10;;;;;;5035935;28;20049;-89
2021/11/12 10:50:31;;;;;;;13.52;9.25;;;15.60;91.90;;;;;;5035788;28;20112;-87
2021/11/12 10:53:01;;;;;;;17.42;10.15;;;15.70;90.80;;;;;;5035899;28;20051;-89
2021/11/12 10:55:30;;;;;;;17.70;10.70;;;16.40;90.00;;;;;;5053128;28;20131;-89
2021/11/12 10:57:59;;;;;;;19.77;11.90;;;15.60;89.50;;;;;;5035772;28;20041;-88
2021/11/12 11:00:32;;;;;;;23.73;15.45;;;15.20;89.70;;;;;;5053231;28;20504;-89
2021/11/12 11:03:13;;;;;;;15.70;9.45;;;15.10;90.90;;;;;;5035306;28;20053;-89
2021/11/12 11:05:46;;;;;;;42.20;11.02;;;15.30;91.00;;;;;;5035678;28;20060;-89
2021/11/12 11:08:21;;;;;;;11.70;8.17;;;16.40;88.60;;;;;;5052516;28;20091;-88
2021/11/12 11:11:04;;;;;;;17.17;8.73;;;17.20;86.60;;;;;;5035965;28;20055;-89
2021/11/12 11:13:37;;;;;;;55.45;19.20;;;18.70;80.50;;;;;;5036123;28;20474;-89
2021/11/12 11:16:16;;;;;;;22.88;12.60;;;18.00;80.30;;;;;;5038500;28;20045;-89
2021/11/12 11:18:44;;;;;;;49.58;27.95;;;17.00;83.60;;;;;;5041482;28;20409;-89
2021/11/12 11:21:24;;;;;;;19.52;12.50;;;15.90;86.80;;;;;;5055032;28;20052;-88
2021/11/12 11:23:59;;;;;;;16.67;10.45;;;15.20;87.50;;;;;;5066667;28;20099;-88
2021/11/12 11:26:48;;;;;;;56.92;33.97;;;14.80;90.90;;;;;;5055789;28;20587;-87
2021/11/12 11:29:20;;;;;;;35.17;19.50;;;14.80;91.00;;;;;;5066094;28;20075;-88
2021/11/12 11:31:47;;;;;;;17.85;9.95;;;15.00;91.20;;;;;;5055632;28;20072;-89
2021/11/12 11:34:14;;;;;;;25.50;12.00;;;16.40;88.30;;;;;;5052450;28;20045;-87
2021/11/12 11:36:45;;;;;;;9.88;7.88;;;17.30;86.10;;;;;;5064865;28;20517;-87
2021/11/12 11:39:15;;;;;;;10.10;8.75;;;17.00;85.80;;;;;;5051225;28;20041;-87
2021/11/12 11:41:47;;;;;;;12.02;9.15;;;15.70;89.90;;;;;;5050731;28;20052;-87
2021/11/12 11:44:15;;;;;;;15.80;8.73;;;15.40;90.60;;;;;;5039693;28;20075;-87
2021/11/12 11:46:45;;;;;;;14.52;10.85;;;15.60;91.60;;;;;;5038571;28;20061;-87
2021/11/12 11:49:19;;;;;;;14.70;9.38;;;14.40;92.40;;;;;;5038736;28;20486;-87
2021/11/12 11:51:58;;;;;;;14.18;11.40;;;14.20;92.90;;;;;;5032252;28;20148;-87
2021/11/12 11:54:27;;;;;;;17.05;11.02;;;14.10;93.90;;;;;;5055896;28;20053;-86
2021/11/12 11:57:11;;;;;;;21.10;12.57;;;14.10;94.30;;;;;;5038487;28;20084;-87
2021/11/12 11:59:40;;;;;;;34.70;28.17;;;14.00;95.40;;;;;;5038332;28;20049;-87
2021/11/12 12:02:12;;;;;;;16.63;12.25;;;14.20;95.10;;;;;;5038267;28;20045;-87
2021/11/12 12:05:08;;;;;;;18.35;12.38;;;13.70;96.50;;;;;;5038258;28;20049;-87
2021/11/12 12:07:41;;;;;;;22.40;13.85;;;14.70;95.70;;;;;;5022048;28;20134;-87
2021/11/12 12:10:20;;;;;;;19.20;12.85;;;13.80;96.50;;;;;;5038285;28;20057;-87
2021/11/12 12:12:50;;;;;;;34.60;16.73;;;13.80;96.70;;;;;;5055619;28;20048;-86
2021/11/12 12:15:20;;;;;;;20.20;13.02;;;13.70;96.40;;;;;;5037960;28;20141;-86
2021/11/12 12:18:09;;;;;;;25.73;14.55;;;14.20;96.20;;;;;;5055342;28;20328;-86
2021/11/12 12:35:01;;;;;;;15.15;11.70;;;12.90;99.90;;;;;;5055284;28;20045;-88
2021/11/12 13:25:40;;;;;;;9.40;7.28;;;13.10;99.90;;;;;;5054127;28;20057;-88
2021/11/12 13:28:21;;;;;;;10.05;5.95;;;13.40;99.90;;;;;;5036412;28;20486;-89
2021/11/12 13:30:48;;;;;;;7.13;6.43;;;13.50;99.90;;;;;;5053803;28;20053;-89
2021/11/12 13:33:37;;;;;;;9.73;7.40;;;13.80;99.90;;;;;;5036053;28;20076;-88
2021/11/12 13:36:21;;;;;;;9.25;6.68;;;13.90;99.90;;;;;;5036067;28;20131;-88
2021/11/12 13:38:59;;;;;;;19.48;8.48;;;14.00;99.90;;;;;;5053238;28;20051;-87
2021/11/12 13:41:30;;;;;;;27.73;9.82;;;14.30;99.90;;;;;;5053686;28;20102;-88
2021/11/12 13:44:06;;;;;;;9.45;7.25;;;14.80;99.30;;;;;;5036344;28;20045;-88
2021/11/12 13:46:56;;;;;;;14.80;8.80;;;15.10;97.40;;;;;;5032011;28;20136;-88
2021/11/12 13:49:28;;;;;;;13.70;7.65;;;14.90;96.20;;;;;;5030869;28;20065;-88
2021/11/12 13:52:08;;;;;;;15.27;9.20;;;14.80;95.50;;;;;;5032197;28;20045;-90
2021/11/12 13:54:39;;;;;;;18.02;8.65;;;14.20;96.00;;;;;;5032751;28;20049;-89
2021/11/12 13:57:09;;;;;;;10.48;8.23;;;14.00;96.90;;;;;;5032595;28;20068;-88
2021/11/12 13:59:36;;;;;;;17.60;9.05;;;13.50;98.40;;;;;;5032810;28;20478;-88
2021/11/12 14:02:03;;;;;;;45.65;13.57;;;13.10;99.10;;;;;;5032331;28;20068;-88
2021/11/12 14:04:32;;;;;;;22.48;11.60;;;12.00;99.90;;;;;;5032236;28;20060;-88
2021/11/12 14:06:59;;;;;;;24.95;11.73;;;11.30;99.90;;;;;;5032520;28;20088;-88
2021/11/12 14:09:33;;;;;;;18.05;9.55;;;10.90;99.90;;;;;;5032409;28;20052;-87
2021/11/12 14:12:08;;;;;;;18.83;9.65;;;10.50;99.90;;;;;;5032500;28;20084;-87
2021/11/12 14:14:37;;;;;;;15.70;8.95;;;10.30;99.90;;;;;;5032274;28;20052;-87
2021/11/12 14:17:27;;;;;;;14.27;9.30;;;10.00;99.90;;;;;;5032697;28;20461;-87
2021/11/12 14:20:25;;;;;;;20.77;10.77;;;9.60;99.90;;;;;;5032188;28;20474;-87
2021/11/12 14:23:11;;;;;;;119.03;18.30;;;9.30;99.90;;;;;;5032460;28;20156;-87
2021/11/12 14:26:08;;;;;;;57.97;14.32;;;9.10;99.90;;;;;;5032032;28;20411;-87
2021/11/12 14:28:47;;;;;;;20.77;10.48;;;8.90;99.90;;;;;;5032931;28;20100;-87
2021/11/12 14:34:40;;;;;;;15.88;10.07;;;8.60;99.90;;;;;;5012291;28;20049;-87
2021/11/12 14:39:51;;;;;;;12.52;10.10;;;8.30;99.90;;;;;;5033034;28;20059;-88
2021/11/12 14:47:56;;;;;;;14.75;9.32;;;7.90;99.90;;;;;;5047691;28;20121;-87
2021/11/12 14:50:51;;;;;;;12.18;9.45;;;7.80;99.90;;;;;;5037348;28;20052;-87
2021/11/12 14:53:30;;;;;;;17.00;9.77;;;7.60;99.90;;;;;;5039351;28;20095;-88
2021/11/12 14:56:06;;;;;;;15.75;9.93;;;7.60;99.90;;;;;;5039490;28;20077;-88
2021/11/12 14:58:35;;;;;;;19.02;10.13;;;7.50;99.90;;;;;;5039649;28;20104;-87
2021/11/12 15:01:06;;;;;;;13.65;8.85;;;7.40;99.90;;;;;;5039341;28;20059;-87
2021/11/12 15:03:33;;;;;;;14.45;9.98;;;7.30;99.90;;;;;;5039535;28;20494;-86
2021/11/12 15:06:01;;;;;;;14.70;10.32;;;7.30;99.90;;;;;;5039053;28;20048;-87
2021/11/12 15:08:29;;;;;;;13.48;9.77;;;7.10;99.90;;;;;;5039022;28;20128;-87
2021/11/12 15:10:58;;;;;;;39.22;12.70;;;7.00;99.90;;;;;;5055433;28;20091;-88
2021/11/12 15:13:28;;;;;;;16.05;9.95;;;6.90;99.90;;;;;;5038957;28;20048;-88
2021/11/12 15:15:55;;;;;;;26.13;12.27;;;6.80;99.90;;;;;;5039078;28;20470;-87
2021/11/12 15:18:23;;;;;;;24.10;12.57;;;6.70;99.90;;;;;;5038945;28;20053;-88
2021/11/12 15:20:51;;;;;;;25.05;11.35;;;6.50;99.90;;;;;;5039099;28;20044;-87
2021/11/12 15:23:29;;;;;;;17.33;11.02;;;6.40;99.90;;;;;;5039055;28;20059;-87
2021/11/12 15:28:49;;;;;;;15.30;9.98;;;6.10;99.90;;;;;;5055758;28;20049;-86
2021/11/12 15:31:21;;;;;;;24.88;11.52;;;5.90;99.90;;;;;;5056188;28;20048;-87
2021/11/12 15:33:57;;;;;;;30.00;13.10;;;5.80;99.90;;;;;;5038761;28;20413;-88
2021/11/12 15:36:24;;;;;;;19.23;10.48;;;5.70;99.90;;;;;;5038487;28;20472;-87
2021/11/12 15:38:58;;;;;;;13.52;10.02;;;5.60;99.90;;;;;;5038820;28;20478;-88
2021/11/12 15:44:39;;;;;;;13.73;10.20;;;5.60;99.90;;;;;;5056402;28;19925;-87
2021/11/12 15:47:09;;;;;;;;;;;5.50;99.90;;;;;;5053841;28;20140;-87
2021/11/12 15:49:38;;;;;;;14.98;10.15;;;5.40;99.90;;;;;;5038878;28;19951;-86
2021/11/12 15:52:12;;;;;;;12.55;9.63;;;5.40;99.90;;;;;;5056090;28;20135;-87
2021/11/12 16:00:14;;;;;;;13.32;10.52;;;5.20;99.90;;;;;;5055686;28;20088;-87
2021/11/12 16:03:23;;;;;;;22.60;11.82;;;5.20;99.90;;;;;;5038790;28;20413;-86
2021/11/12 16:11:14;;;;;;;14.00;10.88;;;5.00;99.90;;;;;;5055977;28;20051;-86
2021/11/12 16:13:47;;;;;;;13.98;10.85;;;4.90;99.90;;;;;;5038549;28;20408;-86
2021/11/12 16:16:30;;;;;;;15.88;11.10;;;4.80;99.90;;;;;;5037837;28;20053;-87
2021/11/12 16:19:04;;;;;;;18.05;10.95;;;4.70;99.90;;;;;;5038175;28;20045;-87
2021/11/12 16:21:44;;;;;;;19.95;12.18;;;4.60;99.90;;;;;;5038108;28;20052;-87
2021/11/12 16:26:45;;;;;;;15.43;11.80;;;4.60;99.90;;;;;;5055380;28;20501;-87
2021/11/12 16:31:43;;;;;;;16.60;12.07;;;4.50;99.90;;;;;;5055534;28;20512;-86
2021/11/12 16:34:15;;;;;;;20.60;12.32;;;4.40;99.90;;;;;;5055492;28;20052;-86
2021/11/12 16:37:01;;;;;;;18.40;11.30;;;4.30;99.90;;;;;;5038473;28;20045;-87
2021/11/12 16:39:34;;;;;;;14.38;11.43;;;4.20;99.90;;;;;;5055158;28;20052;-87
2021/11/12 16:42:20;;;;;;;;;;;4.10;99.90;;;;;;5058478;28;20401;-87
2021/11/12 16:45:11;;;;;;;16.05;11.43;;;3.90;99.90;;;;;;5039892;28;19920;-87
2021/11/12 16:50:22;;;;;;;17.05;11.75;;;3.70;99.90;;;;;;5074663;28;20158;-87
2021/11/12 16:53:01;;;;;;;19.40;13.05;;;3.70;99.90;;;;;;5075353;28;20052;-86
2021/11/12 16:55:58;;;;;;;16.95;13.00;;;3.70;99.90;;;;;;5057762;28;20091;-87
2021/11/12 16:58:33;;;;;;;18.55;12.35;;;3.80;99.90;;;;;;5074944;28;20051;-86
2021/11/12 17:14:46;;;;;;;18.38;13.18;;;3.60;99.90;;;;;;5074055;28;20055;-87
2021/11/12 17:17:28;;;;;;;20.30;13.32;;;3.50;99.90;;;;;;5056954;28;20045;-87
2021/11/12 17:20:14;;;;;;;17.55;12.73;;;3.50;99.90;;;;;;5074899;28;20049;-86
2021/11/12 17:23:12;;;;;;;20.13;13.85;;;3.40;99.90;;;;;;5056965;28;20076;-87
2021/11/12 17:47:46;;;;;;;22.55;15.13;;;3.10;99.90;;;;;;5073754;28;20571;-86
2021/11/12 17:50:37;;;;;;;21.65;15.20;;;3.10;99.90;;;;;;5056187;28;20047;-87
2021/11/12 18:04:02;;;;;;;25.73;15.50;;;3.10;99.90;;;;;;5073740;28;20080;-87
2021/11/12 18:06:47;;;;;;;23.73;15.27;;;3.00;99.90;;;;;;5056725;28;20239;-86
2021/11/12 18:12:37;;;;;;;25.48;16.10;;;3.00;99.90;;;;;;5073665;28;20131;-87
2021/11/12 18:18:25;;;;;;;25.52;16.23;;;2.90;99.90;;;;;;5073208;28;20048;-87
2021/11/12 18:23:33;;;;;;;22.90;14.80;;;3.00;99.90;;;;;;5073287;28;20048;-87
2021/11/12 21:43:54;;;;;;;17.75;10.43;;;3.30;99.90;;;;;;5073176;28;20053;-88
2021/11/12 21:48:57;;;;;;;21.88;12.35;;;3.20;99.90;;;;;;5053164;28;20060;-88
2021/11/12 21:51:25;;;;;;;22.30;13.30;;;3.20;99.90;;;;;;5052130;28;20048;-88
2021/11/12 21:53:53;;;;;;;20.20;12.30;;;3.20;99.90;;;;;;5053159;28;20080;-87
2021/11/12 21:56:20;;;;;;;17.98;12.02;;;3.20;99.90;;;;;;5051599;28;20132;-88
2021/11/12 21:58:48;;;;;;;17.98;11.48;;;3.20;99.90;;;;;;5051313;28;20409;-88
2021/11/12 22:01:16;;;;;;;19.83;12.05;;;3.30;99.90;;;;;;5051304;28;20049;-87
2021/11/12 22:03:43;;;;;;;21.02;12.32;;;3.30;99.90;;;;;;5052687;28;20055;-87
2021/11/12 22:06:10;;;;;;;17.95;13.00;;;3.30;99.90;;;;;;5051131;28;20055;-87
2021/11/12 22:08:36;;;;;;;19.38;11.85;;;3.30;99.90;;;;;;5051651;28;20494;-88
2021/11/12 22:11:06;;;;;;;18.50;12.38;;;3.40;99.90;;;;;;5051597;28;20049;-87
2021/11/12 22:13:33;;;;;;;21.77;13.00;;;3.40;99.90;;;;;;5051712;28;20049;-88
2021/11/12 22:16:00;;;;;;;18.08;12.32;;;3.40;99.90;;;;;;5051519;28;20040;-87